createdAt,value
2022-11-04T00:02:04.200Z,22.43
2022-11-04T00:04:31.380Z,19.87
2022-11-04T00:06:58.662Z,19.40
2022-11-04T00:09:30.600Z,18.10
2022-11-04T00:12:16.707Z,21.80
2022-11-04T00:14:43.651Z,20.03
2022-11-04T00:17:24.248Z,21.67
2022-11-04T00:20:13.940Z,20.33
2022-11-04T00:23:00.781Z,19.73
2022-11-04T00:25:46.805Z,23.37
2022-11-04T00:28:34.912Z,20.17
2022-11-04T00:31:23.060Z,22.00
2022-11-04T00:33:51.948Z,19.50
2022-11-04T00:36:19.217Z,23.33
2022-11-04T00:38:46.570Z,25.77
2022-11-04T00:41:27.516Z,18.67
2022-11-04T00:43:55.979Z,17.13
2022-11-04T00:46:23.125Z,17.73
2022-11-04T00:48:50.214Z,18.53
2022-11-04T00:51:17.326Z,23.77
2022-11-04T00:53:44.434Z,22.00
2022-11-04T00:56:11.703Z,21.63
2022-11-04T00:58:38.849Z,26.53
2022-11-04T01:01:18.145Z,21.90
2022-11-04T01:03:51.073Z,25.50
2022-11-04T01:06:19.173Z,21.23
2022-11-04T01:08:46.705Z,22.37
2022-11-04T01:11:14.001Z,23.20
2022-11-04T01:13:41.270Z,19.60
2022-11-04T01:16:11.119Z,22.77
2022-11-04T01:18:38.672Z,23.50
2022-11-04T01:21:07.065Z,22.70
2022-11-04T01:23:37.131Z,21.30
2022-11-04T01:26:13.287Z,20.30
2022-11-04T01:28:40.288Z,21.77
2022-11-04T01:31:21.693Z,24.93
2022-11-04T01:33:53.220Z,20.40
2022-11-04T01:36:21.283Z,18.93
2022-11-04T01:38:49.258Z,16.97
2022-11-04T01:41:21.484Z,22.93
2022-11-04T01:43:57.281Z,21.63
2022-11-04T01:46:33.407Z,20.17
2022-11-04T01:49:25.113Z,22.80
2022-11-04T01:51:56.826Z,21.27
2022-11-04T01:54:24.000Z,14.77
2022-11-04T01:56:51.702Z,18.23
2022-11-04T01:59:26.649Z,19.53
2022-11-04T02:01:54.417Z,19.50
2022-11-04T02:04:27.979Z,19.30
2022-11-04T02:06:58.037Z,19.60
2022-11-04T02:09:27.925Z,21.07
2022-11-04T02:12:13.540Z,21.03
2022-11-04T02:14:41.453Z,18.13
2022-11-04T02:17:17.641Z,20.43
2022-11-04T02:19:53.933Z,20.47
2022-11-04T02:22:51.040Z,23.23
2022-11-04T02:25:56.781Z,21.53
2022-11-04T02:28:32.766Z,20.33
2022-11-04T02:31:34.632Z,18.00
2022-11-04T02:34:16.860Z,20.87
2022-11-04T02:36:58.833Z,19.80
2022-11-04T02:39:31.849Z,22.60
2022-11-04T02:42:11.789Z,20.27
2022-11-04T02:44:46.649Z,19.40
2022-11-04T02:47:24.972Z,17.17
2022-11-04T02:50:09.513Z,20.83
2022-11-04T02:52:52.038Z,18.50
2022-11-04T02:55:33.661Z,20.13
2022-11-04T02:58:04.902Z,15.37
2022-11-04T03:00:33.674Z,15.60
2022-11-04T03:03:11.483Z,21.33
2022-11-04T03:05:42.764Z,22.23
2022-11-04T03:08:19.969Z,27.47
2022-11-04T03:11:01.242Z,18.57
2022-11-04T03:13:40.369Z,19.93
2022-11-04T03:16:13.879Z,17.27
2022-11-04T03:18:50.855Z,19.60
2022-11-04T03:21:20.412Z,14.40
2022-11-04T03:23:47.525Z,21.83
2022-11-04T03:26:36.031Z,15.57
2022-11-04T03:29:20.481Z,19.17
2022-11-04T03:32:26.464Z,14.80
2022-11-04T03:34:53.752Z,18.50
2022-11-04T03:37:20.646Z,21.00
2022-11-04T03:39:47.862Z,17.60
2022-11-04T03:42:22.236Z,19.37
2022-11-04T03:44:59.750Z,17.13
2022-11-04T03:47:29.537Z,20.53
2022-11-04T03:50:08.316Z,17.57
2022-11-04T03:52:36.809Z,14.47
2022-11-04T03:55:06.608Z,14.13
2022-11-04T03:57:52.341Z,17.20
2022-11-04T04:00:23.702Z,17.60
2022-11-04T04:02:54.557Z,16.20
2022-11-04T04:05:35.812Z,22.10
2022-11-04T04:08:19.057Z,14.93
2022-11-04T04:11:13.401Z,15.90
2022-11-04T04:13:46.311Z,14.07
2022-11-04T04:16:24.652Z,19.97
2022-11-04T04:18:58.929Z,15.87
2022-11-04T04:21:54.179Z,18.17
2022-11-04T04:24:41.989Z,19.57
2022-11-04T04:27:29.062Z,17.67
2022-11-04T04:29:57.053Z,13.80
2022-11-04T04:32:28.445Z,21.57
2022-11-04T04:35:16.358Z,16.97
2022-11-04T04:37:44.889Z,13.90
2022-11-04T04:40:35.531Z,15.47
2022-11-04T04:43:21.292Z,19.80
2022-11-04T04:45:53.969Z,15.50
2022-11-04T04:48:21.020Z,16.43
2022-11-04T04:50:51.804Z,18.03
2022-11-04T04:53:18.709Z,14.73
2022-11-04T04:55:45.628Z,15.17
2022-11-04T04:58:12.498Z,18.17
2022-11-04T05:00:39.706Z,17.30
2022-11-04T05:03:07.134Z,16.47
2022-11-04T05:05:34.278Z,18.07
2022-11-04T05:08:06.646Z,14.63
2022-11-04T05:10:34.245Z,18.33
2022-11-04T05:13:20.370Z,15.13
2022-11-04T05:15:47.219Z,13.80
2022-11-04T05:18:15.539Z,16.73
2022-11-04T05:20:42.487Z,15.87
2022-11-04T05:23:12.151Z,17.20
2022-11-04T05:25:40.342Z,15.73
2022-11-04T05:28:08.379Z,18.90
2022-11-04T05:30:35.847Z,19.50
2022-11-04T05:33:05.007Z,15.07
2022-11-04T05:35:32.704Z,13.67
2022-11-04T05:37:59.581Z,17.00
2022-11-04T05:40:26.436Z,13.50
2022-11-04T05:42:53.262Z,13.50
2022-11-04T05:45:20.075Z,14.13
2022-11-04T05:47:46.898Z,24.17
2022-11-04T05:50:13.754Z,14.10
2022-11-04T05:52:40.640Z,17.57
2022-11-04T05:55:07.903Z,17.47
2022-11-04T05:57:35.748Z,15.60
2022-11-04T06:00:03.159Z,15.53
2022-11-04T06:02:30.081Z,19.23
2022-11-04T06:04:57.021Z,16.87
2022-11-04T06:07:23.854Z,16.17
2022-11-04T06:09:50.823Z,18.43
2022-11-04T06:12:17.902Z,15.33
2022-11-04T06:14:45.290Z,14.50
2022-11-04T06:17:17.329Z,15.67
2022-11-04T06:19:44.732Z,16.03
2022-11-04T06:22:13.065Z,14.03
2022-11-04T06:24:40.253Z,15.87
2022-11-04T06:27:07.568Z,22.63
2022-11-04T06:29:34.545Z,15.27
2022-11-04T06:32:01.409Z,14.90
2022-11-04T06:34:28.263Z,14.93
2022-11-04T06:36:55.086Z,15.57
2022-11-04T06:39:21.900Z,13.50
2022-11-04T06:41:51.513Z,15.90
2022-11-04T06:44:19.048Z,14.43
2022-11-04T06:46:46.005Z,16.40
2022-11-04T06:49:21.320Z,16.23
2022-11-04T06:51:48.861Z,12.97
2022-11-04T06:54:16.841Z,15.00
2022-11-04T06:56:44.289Z,14.43
2022-11-04T06:59:21.089Z,13.40
2022-11-04T07:01:49.827Z,12.30
2022-11-04T07:04:16.817Z,13.90
2022-11-04T07:06:44.717Z,18.93
2022-11-04T07:09:14.865Z,22.50
2022-11-04T07:11:43.895Z,14.90
2022-11-04T07:14:11.224Z,12.93
2022-11-04T07:16:38.439Z,16.10
2022-11-04T07:19:06.421Z,12.67
2022-11-04T07:21:33.346Z,14.13
2022-11-04T07:24:01.810Z,15.17
2022-11-04T07:26:28.631Z,13.77
2022-11-04T07:28:55.529Z,13.00
2022-11-04T07:31:22.460Z,15.43
2022-11-04T07:33:51.416Z,13.90
2022-11-04T07:36:19.485Z,17.80
2022-11-04T07:38:46.960Z,14.53
2022-11-04T07:41:14.966Z,14.17
2022-11-04T07:43:41.787Z,19.80
2022-11-04T07:46:11.821Z,13.33
2022-11-04T07:48:39.131Z,17.00
2022-11-04T07:51:08.794Z,13.73
2022-11-04T07:53:36.810Z,15.10
2022-11-04T07:56:05.931Z,15.13
2022-11-04T07:58:33.651Z,16.17
2022-11-04T08:01:02.267Z,14.50
2022-11-04T08:03:29.325Z,15.63
2022-11-04T08:05:57.874Z,15.43
2022-11-04T08:08:24.997Z,18.37
2022-11-04T08:11:00.543Z,19.17
2022-11-04T08:13:29.265Z,17.73
2022-11-04T08:15:57.624Z,15.20
2022-11-04T08:18:24.567Z,16.13
2022-11-04T08:20:52.527Z,13.87
2022-11-04T08:23:19.885Z,15.37
2022-11-04T08:25:47.257Z,14.27
2022-11-04T08:28:17.812Z,17.07
2022-11-04T08:30:57.454Z,17.43
2022-11-04T08:33:26.479Z,13.30
2022-11-04T08:35:55.165Z,15.63
2022-11-04T08:38:22.380Z,15.93
2022-11-04T08:40:49.689Z,15.03
2022-11-04T08:43:16.669Z,11.30
2022-11-04T08:45:45.878Z,16.53
2022-11-04T08:48:13.984Z,18.87
2022-11-04T08:50:41.266Z,16.73
2022-11-04T08:53:08.688Z,14.80
2022-11-04T08:55:36.263Z,17.33
2022-11-04T08:58:03.796Z,14.23
2022-11-04T09:00:33.109Z,20.57
2022-11-04T09:03:00.156Z,16.10
2022-11-04T09:05:27.690Z,17.70
2022-11-04T09:07:55.539Z,16.13
2022-11-04T09:10:23.140Z,14.27
2022-11-04T09:12:50.120Z,13.00
2022-11-04T09:15:17.224Z,15.30
2022-11-04T09:17:44.474Z,13.80
2022-11-04T09:20:12.255Z,13.17
2022-11-04T09:22:43.128Z,13.53
2022-11-04T09:25:12.731Z,16.27
2022-11-04T09:27:39.817Z,16.03
2022-11-04T09:30:07.292Z,17.63
2022-11-04T09:32:34.453Z,17.20
2022-11-04T09:35:01.767Z,19.65
2022-11-04T09:37:28.946Z,17.60
2022-11-04T09:39:55.856Z,11.80
2022-11-04T09:42:54.405Z,12.50
2022-11-04T09:45:28.349Z,15.30
2022-11-04T09:48:06.505Z,12.70
2022-11-04T09:50:50.659Z,14.97
2022-11-04T09:53:26.323Z,14.27
2022-11-04T09:55:58.274Z,11.93
2022-11-04T09:58:25.288Z,17.97
2022-11-04T10:01:11.058Z,15.03
2022-11-04T10:03:38.147Z,16.70
2022-11-04T10:06:23.755Z,13.77
2022-11-04T10:09:02.366Z,13.43
2022-11-04T10:11:59.871Z,14.73
2022-11-04T10:14:35.152Z,12.70
2022-11-04T10:17:27.633Z,12.83
2022-11-04T10:20:16.173Z,17.57
2022-11-04T10:23:08.732Z,13.47
2022-11-04T10:25:52.531Z,15.80
2022-11-04T10:28:22.005Z,13.53
2022-11-04T10:30:51.923Z,13.13
2022-11-04T10:33:32.893Z,15.47
2022-11-04T10:36:15.390Z,14.50
2022-11-04T10:38:48.679Z,14.93
2022-11-04T10:41:24.019Z,15.27
2022-11-04T10:44:01.983Z,17.90
2022-11-04T10:46:54.389Z,13.80
2022-11-04T10:49:33.775Z,16.50
2022-11-04T10:52:00.879Z,13.68
2022-11-04T10:54:28.186Z,13.53
2022-11-04T10:56:56.645Z,15.02
2022-11-04T10:59:46.952Z,13.53
2022-11-04T11:02:14.225Z,16.40
2022-11-04T11:04:41.906Z,18.50
2022-11-04T11:07:10.820Z,15.00
2022-11-04T11:09:54.209Z,14.60
2022-11-04T11:12:50.172Z,14.45
2022-11-04T11:15:38.243Z,15.35
2022-11-04T11:18:08.233Z,14.10
2022-11-04T11:20:38.274Z,11.77
2022-11-04T11:23:09.821Z,14.50
2022-11-04T11:25:50.529Z,16.65
2022-11-04T11:28:27.218Z,12.50
2022-11-04T11:31:08.584Z,11.63
2022-11-04T11:33:47.039Z,13.23
2022-11-04T11:36:21.449Z,15.05
2022-11-04T11:39:01.546Z,15.93
2022-11-04T11:41:31.546Z,12.68
2022-11-04T11:44:06.515Z,16.52
2022-11-04T11:46:36.443Z,12.40
2022-11-04T11:49:05.532Z,11.95
2022-11-04T11:51:36.231Z,13.07
2022-11-04T11:54:22.736Z,12.30
2022-11-04T11:57:24.923Z,12.60
2022-11-04T12:03:18.358Z,12.70
2022-11-04T12:11:53.064Z,15.10
2022-11-04T12:14:20.119Z,17.60
2022-11-04T12:17:27.728Z,16.05
2022-11-04T12:20:23.296Z,13.10
2022-11-04T12:23:02.018Z,14.13
2022-11-04T12:25:35.095Z,15.70
2022-11-04T12:28:09.248Z,14.13
2022-11-04T12:30:50.416Z,14.30
2022-11-04T12:33:39.908Z,14.00
2022-11-04T12:36:27.367Z,18.50
2022-11-04T12:39:21.244Z,14.05
2022-11-04T12:42:33.164Z,15.20
2022-11-04T12:45:26.968Z,14.10
2022-11-04T12:48:00.020Z,16.88
2022-11-04T12:50:49.943Z,14.00
2022-11-04T12:54:05.199Z,12.73
2022-11-04T12:56:40.880Z,17.67
2022-11-04T12:59:35.737Z,13.68
2022-11-04T13:02:23.434Z,12.45
2022-11-04T13:05:12.102Z,21.70
2022-11-04T13:07:47.648Z,17.95
2022-11-04T13:10:25.361Z,13.73
2022-11-04T13:12:54.191Z,13.75
2022-11-04T13:15:25.782Z,19.23
2022-11-04T13:17:59.739Z,15.50
2022-11-04T13:20:48.174Z,14.18
2022-11-04T13:23:35.151Z,14.10
2022-11-04T13:26:05.293Z,12.25
2022-11-04T13:28:32.805Z,18.00
2022-11-04T13:31:07.976Z,17.70
2022-11-04T13:33:49.903Z,18.92
2022-11-04T13:36:58.485Z,17.10
2022-11-04T13:39:33.167Z,16.20
2022-11-04T13:42:28.596Z,20.30
2022-11-04T13:44:58.209Z,18.42
2022-11-04T13:47:35.401Z,19.15
2022-11-04T13:50:02.794Z,14.77
2022-11-04T13:52:32.720Z,15.98
2022-11-04T13:55:02.934Z,19.45
2022-11-04T13:57:48.145Z,19.43
2022-11-04T14:00:27.330Z,18.77
2022-11-04T14:03:22.655Z,17.00
2022-11-04T14:06:10.732Z,17.87
2022-11-04T14:09:16.012Z,18.77
2022-11-04T14:12:14.647Z,17.42
2022-11-04T14:14:43.806Z,17.00
2022-11-04T14:17:35.044Z,18.37
2022-11-04T14:20:05.089Z,17.20
2022-11-04T14:22:42.947Z,17.50
2022-11-04T14:25:24.857Z,16.57
2022-11-04T14:28:01.846Z,19.48
2022-11-04T14:30:48.982Z,13.83
2022-11-04T14:33:37.082Z,18.00
2022-11-04T14:36:21.855Z,14.63
2022-11-04T14:39:11.501Z,17.73
2022-11-04T14:41:41.667Z,19.33
2022-11-04T14:44:18.496Z,16.52
2022-11-04T14:46:48.385Z,18.17
2022-11-04T14:49:35.825Z,18.13
2022-11-04T14:52:03.063Z,18.33
2022-11-04T14:54:34.130Z,17.50
2022-11-04T14:57:21.852Z,16.93
2022-11-04T14:59:52.140Z,16.07
2022-11-04T15:02:24.173Z,14.50
2022-11-04T15:05:01.448Z,13.50
2022-11-04T15:07:38.811Z,17.27
2022-11-04T15:10:26.069Z,14.13
2022-11-04T15:12:57.949Z,15.73
2022-11-04T15:15:31.696Z,16.33
2022-11-04T15:18:15.618Z,19.03
2022-11-04T15:20:55.014Z,14.07
2022-11-04T15:23:33.846Z,15.97
2022-11-04T15:26:02.280Z,17.17
2022-11-04T15:28:39.525Z,18.83
2022-11-04T15:31:12.248Z,16.03
2022-11-04T15:33:45.204Z,14.73
2022-11-04T15:36:35.089Z,19.97
2022-11-04T15:39:11.890Z,18.13
2022-11-04T15:41:59.017Z,20.23
2022-11-04T15:44:28.977Z,17.87
2022-11-04T15:46:58.720Z,22.37
2022-11-04T15:49:35.474Z,21.23
2022-11-04T15:52:08.259Z,21.87
2022-11-04T15:54:37.857Z,18.80
2022-11-04T15:57:28.685Z,18.63
2022-11-04T16:00:06.256Z,24.00
2022-11-04T16:02:44.524Z,19.10
2022-11-04T16:05:11.749Z,27.47
2022-11-04T16:07:43.590Z,18.67
2022-11-04T16:10:23.327Z,20.53
2022-11-04T16:12:56.790Z,18.80
2022-11-04T16:15:51.035Z,21.07
2022-11-04T16:18:25.176Z,22.97
2022-11-04T16:20:54.375Z,24.27
2022-11-04T16:23:28.204Z,19.87
2022-11-04T16:26:05.771Z,20.50
2022-11-04T16:28:37.528Z,21.80
2022-11-04T16:31:07.623Z,17.53
2022-11-04T16:33:34.540Z,18.50
2022-11-04T16:36:01.825Z,19.73
2022-11-04T16:38:28.699Z,18.40
2022-11-04T16:40:55.532Z,19.63
2022-11-04T16:43:22.713Z,16.13
2022-11-04T16:45:53.834Z,19.10
2022-11-04T16:48:21.293Z,19.80
2022-11-04T16:50:49.077Z,18.70
2022-11-04T16:53:15.931Z,19.53
2022-11-04T16:55:44.533Z,21.60
2022-11-04T16:58:18.096Z,20.67
2022-11-04T17:00:45.128Z,18.87
2022-11-04T17:03:22.776Z,19.80
2022-11-04T17:05:51.754Z,22.03
2022-11-04T17:08:18.584Z,18.47
2022-11-04T17:10:46.907Z,23.30
2022-11-04T17:13:13.845Z,17.57
2022-11-04T17:15:41.250Z,21.77
2022-11-04T17:18:09.734Z,21.10
2022-11-04T17:20:36.581Z,27.87
2022-11-04T17:23:03.422Z,29.73
2022-11-04T17:25:30.391Z,21.67
2022-11-04T17:27:57.336Z,24.60
2022-11-04T17:30:24.583Z,22.90
2022-11-04T17:32:51.518Z,26.10
2022-11-04T17:35:18.643Z,21.13
2022-11-04T17:37:46.031Z,23.43
2022-11-04T17:40:16.041Z,22.50
2022-11-04T17:43:05.607Z,34.23
2022-11-04T17:45:37.074Z,31.70
2022-11-04T17:48:05.549Z,33.57
2022-11-04T17:50:33.334Z,29.00
2022-11-04T17:53:00.203Z,28.00
2022-11-04T17:55:27.810Z,21.37
2022-11-04T17:57:55.522Z,21.97
2022-11-04T18:00:25.934Z,23.27
2022-11-04T18:02:52.966Z,22.77
2022-11-04T18:05:20.404Z,19.83
2022-11-04T18:07:47.266Z,23.67
2022-11-04T18:10:14.128Z,29.57
2022-11-04T18:12:41.497Z,33.73
2022-11-04T18:15:11.652Z,28.23
2022-11-04T18:17:43.539Z,28.20
2022-11-04T18:20:14.622Z,23.40
2022-11-04T18:22:42.619Z,24.63
2022-11-04T18:25:10.428Z,24.73
2022-11-04T18:27:37.665Z,28.47
2022-11-04T18:30:05.529Z,26.23
2022-11-04T18:32:32.739Z,25.23
2022-11-04T18:34:59.924Z,26.97
2022-11-04T18:37:27.959Z,29.37
2022-11-04T18:39:55.043Z,29.20
2022-11-04T18:42:22.262Z,29.97
2022-11-04T18:44:49.268Z,30.87
2022-11-04T18:47:16.381Z,28.03
2022-11-04T18:49:43.205Z,33.77
2022-11-04T18:52:10.017Z,33.50
2022-11-04T18:54:36.865Z,26.10
2022-11-04T18:57:04.805Z,30.87
2022-11-04T18:59:31.681Z,27.17
2022-11-04T19:01:58.798Z,27.00
2022-11-04T19:04:25.767Z,28.60
2022-11-04T19:06:52.757Z,28.60
2022-11-04T19:12:25.621Z,29.50
2022-11-04T19:14:53.074Z,27.47
2022-11-04T19:17:20.660Z,26.13
2022-11-04T19:19:47.520Z,23.03
2022-11-04T19:22:14.782Z,26.03
2022-11-04T19:24:41.601Z,29.03
2022-11-04T19:27:08.576Z,26.37
2022-11-04T19:29:35.435Z,25.90
2022-11-04T19:32:02.270Z,30.20
2022-11-04T19:34:29.244Z,30.53
2022-11-04T19:36:56.161Z,34.83
2022-11-04T19:39:22.981Z,30.33
2022-11-04T19:42:08.269Z,68.23
2022-11-04T19:44:35.192Z,46.87
2022-11-04T19:47:02.007Z,40.03
2022-11-04T19:49:31.569Z,35.07
2022-11-04T19:51:59.566Z,35.20
2022-11-04T19:54:28.303Z,37.03
2022-11-04T19:56:55.298Z,34.67
2022-11-04T19:59:22.663Z,31.87
2022-11-04T20:01:50.523Z,30.80
2022-11-04T20:04:17.773Z,32.00
2022-11-04T20:06:44.690Z,33.93
2022-11-04T20:09:11.911Z,36.57
2022-11-04T20:12:00.301Z,38.37
2022-11-04T20:14:28.746Z,31.43
2022-11-04T20:16:55.813Z,27.53
2022-11-04T20:19:23.424Z,28.43
2022-11-04T20:21:51.639Z,28.53
2022-11-04T20:24:18.716Z,26.23
2022-11-04T20:26:46.977Z,32.27
2022-11-04T20:29:16.114Z,29.40
2022-11-04T20:31:44.676Z,26.70
2022-11-04T20:34:13.946Z,29.23
2022-11-04T20:36:41.823Z,29.40
2022-11-04T20:39:14.308Z,27.67
2022-11-04T20:41:41.891Z,27.17
2022-11-04T20:44:13.836Z,27.50
2022-11-04T20:46:41.452Z,29.73
2022-11-04T20:49:08.539Z,30.80
2022-11-04T20:51:39.111Z,23.73
2022-11-04T20:54:07.173Z,28.67
2022-11-04T20:56:36.964Z,27.37
2022-11-04T20:59:06.044Z,34.77
2022-11-04T21:01:36.249Z,24.03
2022-11-04T21:04:06.104Z,32.13
2022-11-04T21:06:35.036Z,24.70
2022-11-04T21:09:01.917Z,29.83
2022-11-04T21:11:31.881Z,30.20
2022-11-04T21:13:59.564Z,31.80
2022-11-04T21:16:26.628Z,25.13
2022-11-04T21:18:54.149Z,31.27
2022-11-04T21:21:21.206Z,26.33
2022-11-04T21:23:48.101Z,32.33
2022-11-04T21:26:23.236Z,31.20
2022-11-04T21:28:57.467Z,30.53
2022-11-04T21:31:25.562Z,29.40
2022-11-04T21:33:53.487Z,27.53
2022-11-04T21:36:22.452Z,30.67
2022-11-04T21:38:49.751Z,26.07
2022-11-04T21:41:19.609Z,26.30
2022-11-04T21:43:46.415Z,29.57
2022-11-04T21:46:15.523Z,26.97
2022-11-04T21:48:43.044Z,28.70
2022-11-04T21:51:12.806Z,38.40
2022-11-04T21:53:40.156Z,32.40
2022-11-04T21:56:21.632Z,27.17
2022-11-04T21:58:49.075Z,33.33
2022-11-04T22:01:19.337Z,31.03
2022-11-04T22:03:51.112Z,25.67
2022-11-04T22:06:18.564Z,28.40
2022-11-04T22:08:49.335Z,28.13
2022-11-04T22:11:19.790Z,25.90
2022-11-04T22:13:46.725Z,24.83
2022-11-04T22:16:22.789Z,24.70
2022-11-04T22:18:54.992Z,25.27
2022-11-04T22:21:23.692Z,27.93
2022-11-04T22:23:50.929Z,28.37
2022-11-04T22:26:20.860Z,32.30
2022-11-04T22:28:48.039Z,28.50
2022-11-04T22:31:19.868Z,26.67
2022-11-04T22:33:46.745Z,28.83
2022-11-04T22:36:14.104Z,29.47
2022-11-04T22:38:42.593Z,28.23
2022-11-04T22:41:14.024Z,28.33
2022-11-04T22:43:40.887Z,29.00
2022-11-04T22:46:20.589Z,31.20
2022-11-04T22:48:47.598Z,24.20
2022-11-04T22:51:15.043Z,27.20
2022-11-04T22:53:42.173Z,26.70
2022-11-04T22:56:10.980Z,26.53
2022-11-04T22:58:38.131Z,30.70
2022-11-04T23:01:11.480Z,27.40
2022-11-04T23:03:39.518Z,27.73
2022-11-04T23:06:07.916Z,32.50
2022-11-04T23:08:36.431Z,33.13
2022-11-04T23:11:28.015Z,30.60
2022-11-04T23:14:20.521Z,34.47
2022-11-04T23:17:09.088Z,24.97
2022-11-04T23:19:37.767Z,28.70
2022-11-04T23:22:23.822Z,32.73
2022-11-04T23:25:06.132Z,25.43
2022-11-04T23:28:08.392Z,27.27
2022-11-04T23:30:41.414Z,28.43
2022-11-04T23:33:11.051Z,30.03
2022-11-04T23:36:01.154Z,29.70
2022-11-04T23:38:31.127Z,33.20
2022-11-04T23:41:18.767Z,31.63
2022-11-04T23:43:45.642Z,33.60
2022-11-04T23:46:31.616Z,32.53
2022-11-04T23:49:27.246Z,28.03
2022-11-04T23:52:12.765Z,27.90
2022-11-04T23:54:58.227Z,28.83
2022-11-04T23:57:43.816Z,29.40
